createdAt,value
2018-10-06T00:00:59.397Z,16.67
2018-10-06T00:01:59.348Z,16.68
2018-10-06T00:02:59.298Z,16.73
2018-10-06T00:03:59.244Z,16.58
2018-10-06T00:04:59.194Z,16.73
2018-10-06T00:05:59.144Z,16.65
2018-10-06T00:06:59.093Z,16.62
2018-10-06T00:07:59.042Z,16.68
2018-10-06T00:08:58.992Z,16.68
2018-10-06T00:09:58.940Z,16.56
2018-10-06T00:10:58.892Z,16.68
2018-10-06T00:11:58.839Z,16.73
2018-10-06T00:12:58.786Z,16.65
2018-10-06T00:13:58.737Z,16.65
2018-10-06T00:14:58.685Z,16.63
2018-10-06T00:15:58.635Z,16.65
2018-10-06T00:16:58.583Z,16.65
2018-10-06T00:17:58.563Z,16.70
2018-10-06T00:18:58.482Z,16.68
2018-10-06T00:19:58.433Z,16.70
2018-10-06T00:20:58.382Z,16.55
2018-10-06T00:21:58.328Z,16.58
2018-10-06T00:22:58.280Z,16.59
2018-10-06T00:23:58.231Z,16.59
2018-10-06T00:24:58.176Z,16.58
2018-10-06T00:25:58.127Z,16.52
2018-10-06T00:26:58.075Z,16.56
2018-10-06T00:27:58.025Z,16.59
2018-10-06T00:28:57.972Z,16.65
2018-10-06T00:29:57.924Z,16.65
2018-10-06T00:30:57.872Z,16.65
2018-10-06T00:31:57.825Z,16.58
2018-10-06T00:32:57.769Z,16.60
2018-10-06T00:33:57.717Z,16.55
2018-10-06T00:34:57.671Z,16.60
2018-10-06T00:35:57.617Z,16.58
2018-10-06T00:36:57.568Z,16.56
2018-10-06T00:37:57.514Z,16.55
2018-10-06T00:38:57.464Z,16.62
2018-10-06T00:39:57.416Z,16.59
2018-10-06T00:40:57.361Z,16.58
2018-10-06T00:41:57.321Z,16.58
2018-10-06T00:42:57.260Z,16.62
2018-10-06T00:43:57.210Z,16.52
2018-10-06T00:44:57.159Z,16.53
2018-10-06T00:45:57.107Z,16.53
2018-10-06T00:46:57.061Z,16.59
2018-10-06T00:47:57.005Z,16.58
2018-10-06T00:48:56.954Z,16.58
2018-10-06T00:49:56.905Z,16.50
2018-10-06T00:50:56.853Z,16.50
2018-10-06T00:51:56.802Z,16.55
2018-10-06T00:52:56.754Z,16.52
2018-10-06T00:53:56.701Z,16.48
2018-10-06T00:54:56.649Z,16.53
2018-10-06T00:55:56.598Z,16.48
2018-10-06T00:56:56.547Z,16.52
2018-10-06T00:57:56.497Z,16.44
2018-10-06T00:58:56.445Z,16.48
2018-10-06T00:59:56.393Z,16.52
2018-10-06T01:00:56.342Z,16.44
2018-10-06T01:01:56.292Z,16.52
2018-10-06T01:02:56.240Z,16.48
2018-10-06T01:03:56.190Z,16.48
2018-10-06T01:04:56.144Z,16.48
2018-10-06T01:05:56.089Z,16.48
2018-10-06T01:06:56.037Z,16.48
2018-10-06T01:07:55.989Z,16.48
2018-10-06T01:08:55.938Z,16.45
2018-10-06T01:09:55.884Z,16.44
2018-10-06T01:10:55.832Z,16.41
2018-10-06T01:11:55.782Z,16.48
2018-10-06T01:12:55.731Z,16.52
2018-10-06T01:13:55.683Z,16.41
2018-10-06T01:21:02.532Z,16.45
2018-10-06T01:22:02.044Z,16.44
2018-10-06T01:23:54.917Z,16.40
2018-10-06T01:24:54.785Z,16.37
2018-10-06T01:26:47.581Z,16.42
2018-10-06T01:27:47.525Z,16.42
2018-10-06T01:29:40.360Z,16.38
2018-10-06T01:30:40.266Z,16.41
2018-10-06T01:32:33.065Z,16.35
2018-10-06T01:33:33.007Z,16.41
2018-10-06T01:35:25.863Z,16.35
2018-10-06T01:36:25.750Z,16.27
2018-10-06T01:38:18.547Z,16.30
2018-10-06T01:39:18.491Z,16.31
2018-10-06T01:41:11.362Z,16.27
2018-10-06T01:42:11.233Z,16.30
2018-10-06T01:44:04.034Z,16.37
2018-10-06T01:45:03.975Z,16.30
2018-10-06T01:46:57.428Z,16.33
2018-10-06T01:47:56.907Z,16.34
2018-10-06T01:49:50.250Z,16.38
2018-10-06T01:50:50.163Z,16.37
2018-10-06T01:51:50.098Z,16.30
2018-10-06T01:52:50.050Z,16.27
2018-10-06T01:53:49.992Z,16.30
2018-10-06T01:54:49.942Z,16.26
2018-10-06T01:55:49.896Z,16.30
2018-10-06T01:56:49.840Z,16.33
2018-10-06T01:57:49.790Z,16.35
2018-10-06T01:58:49.739Z,16.33
2018-10-06T01:59:49.686Z,16.37
2018-10-06T02:00:49.637Z,16.26
2018-10-06T02:01:49.585Z,16.31
2018-10-06T02:02:49.532Z,16.27
2018-10-06T02:03:49.483Z,16.34
2018-10-06T02:04:49.431Z,16.30
2018-10-06T02:05:49.379Z,16.26
2018-10-06T02:06:49.332Z,16.30
2018-10-06T02:07:49.279Z,16.26
2018-10-06T02:08:49.226Z,16.31
2018-10-06T02:09:49.180Z,16.27
2018-10-06T02:10:49.124Z,16.22
2018-10-06T02:11:49.077Z,16.16
2018-10-06T02:12:49.022Z,16.20
2018-10-06T02:13:48.969Z,16.15
2018-10-06T02:14:48.919Z,16.20
2018-10-06T02:15:48.867Z,16.20
2018-10-06T02:16:48.818Z,16.23
2018-10-06T02:17:48.766Z,16.25
2018-10-06T02:18:48.715Z,16.16
2018-10-06T02:19:48.663Z,16.18
2018-10-06T02:20:48.613Z,16.14
2018-10-06T02:21:48.560Z,16.23
2018-10-06T02:22:48.509Z,16.15
2018-10-06T02:23:48.458Z,16.15
2018-10-06T02:24:48.408Z,16.23
2018-10-06T02:25:48.357Z,16.20
2018-10-06T02:26:48.305Z,16.22
2018-10-06T02:27:48.254Z,16.25
2018-10-06T02:28:48.204Z,16.20
2018-10-06T02:29:48.151Z,16.22
2018-10-06T02:30:48.101Z,16.20
2018-10-06T02:31:48.049Z,16.20
2018-10-06T02:32:47.999Z,16.20
2018-10-06T02:33:47.947Z,16.18
2018-10-06T02:34:47.897Z,16.18
2018-10-06T02:35:47.845Z,16.22
2018-10-06T02:36:47.864Z,16.22
2018-10-06T02:37:47.742Z,16.20
2018-10-06T02:38:47.691Z,16.15
2018-10-06T02:39:47.641Z,16.23
2018-10-06T02:40:47.590Z,16.11
2018-10-06T02:41:47.539Z,16.16
2018-10-06T02:42:47.487Z,16.20
2018-10-06T02:43:47.436Z,16.18
2018-10-06T02:44:47.384Z,16.15
2018-10-06T02:45:47.333Z,16.12
2018-10-06T02:46:47.280Z,16.20
2018-10-06T02:47:47.238Z,16.12
2018-10-06T02:48:47.179Z,16.12
2018-10-06T02:49:47.128Z,16.11
2018-10-06T02:50:47.083Z,16.14
2018-10-06T02:51:47.026Z,16.15
2018-10-06T02:52:46.974Z,16.15
2018-10-06T02:53:46.922Z,16.12
2018-10-06T02:54:46.872Z,16.12
2018-10-06T02:55:46.821Z,16.16
2018-10-06T02:56:46.770Z,16.12
2018-10-06T02:57:46.722Z,16.14
2018-10-06T02:58:46.667Z,16.06
2018-10-06T02:59:46.616Z,16.14
2018-10-06T03:00:46.569Z,16.11
2018-10-06T03:01:46.512Z,16.06
2018-10-06T03:02:46.471Z,16.14
2018-10-06T03:03:46.411Z,16.07
2018-10-06T03:04:46.360Z,16.03
2018-10-06T03:05:46.308Z,16.03
2018-10-06T03:06:46.265Z,16.16
2018-10-06T03:07:46.205Z,16.09
2018-10-06T03:08:46.155Z,16.12
2018-10-06T03:09:46.104Z,16.03
2018-10-06T03:10:46.052Z,16.12
2018-10-06T03:11:46.001Z,16.06
2018-10-06T03:12:45.950Z,16.00
2018-10-06T03:13:45.897Z,16.11
2018-10-06T03:14:45.846Z,16.00
2018-10-06T03:15:45.795Z,16.03
2018-10-06T03:16:45.744Z,16.14
2018-10-06T03:17:45.693Z,16.04
2018-10-06T03:18:45.641Z,16.03
2018-10-06T03:19:45.591Z,16.07
2018-10-06T03:20:45.540Z,16.07
2018-10-06T03:21:45.488Z,16.07
2018-10-06T03:22:45.439Z,16.14
2018-10-06T03:23:45.385Z,16.06
2018-10-06T03:24:45.335Z,16.01
2018-10-06T03:25:45.286Z,16.01
2018-10-06T03:26:45.231Z,16.09
2018-10-06T03:27:45.180Z,16.06
2018-10-06T03:28:45.134Z,16.09
2018-10-06T03:29:45.080Z,16.01
2018-10-06T03:30:45.027Z,16.03
2018-10-06T03:31:44.975Z,16.04
2018-10-06T03:32:44.928Z,16.09
2018-10-06T03:33:44.873Z,16.11
2018-10-06T03:34:44.825Z,16.07
2018-10-06T03:35:44.769Z,15.99
2018-10-06T03:36:44.718Z,16.12
2018-10-06T03:37:44.665Z,16.00
2018-10-06T03:38:44.616Z,16.12
2018-10-06T03:39:44.564Z,16.00
2018-10-06T03:40:44.512Z,16.01
2018-10-06T03:41:44.462Z,16.11
2018-10-06T03:42:44.409Z,16.07
2018-10-06T03:43:44.365Z,16.07
2018-10-06T03:44:44.307Z,15.97
2018-10-06T03:45:44.256Z,16.04
2018-10-06T03:46:44.206Z,16.09
2018-10-06T03:47:44.154Z,16.00
2018-10-06T03:48:44.102Z,15.97
2018-10-06T03:49:44.050Z,15.94
2018-10-06T03:50:44.001Z,15.99
2018-10-06T03:51:43.952Z,15.99
2018-10-06T03:52:43.896Z,15.99
2018-10-06T03:53:43.852Z,15.96
2018-10-06T03:54:43.793Z,15.93
2018-10-06T03:55:43.743Z,15.93
2018-10-06T03:56:43.693Z,15.96
2018-10-06T03:57:43.638Z,15.96
2018-10-06T03:58:43.589Z,16.01
2018-10-06T03:59:43.538Z,16.00
2018-10-06T04:00:43.486Z,15.99
2018-10-06T04:01:43.434Z,15.96
2018-10-06T04:02:43.383Z,15.94
2018-10-06T04:03:43.331Z,15.96
2018-10-06T04:04:43.281Z,16.01
2018-10-06T04:05:43.230Z,15.99
2018-10-06T04:06:43.176Z,15.96
2018-10-06T04:07:43.125Z,16.03
2018-10-06T04:08:43.075Z,15.85
2018-10-06T04:09:43.022Z,16.00
2018-10-06T04:10:42.972Z,15.99
2018-10-06T04:11:42.922Z,15.97
2018-10-06T04:12:42.869Z,15.99
2018-10-06T04:13:42.820Z,15.93
2018-10-06T04:14:42.766Z,15.94
2018-10-06T04:15:42.715Z,15.96
2018-10-06T04:16:42.663Z,15.97
2018-10-06T04:17:42.611Z,15.88
2018-10-06T04:18:42.560Z,15.88
2018-10-06T04:19:42.508Z,15.94
2018-10-06T04:20:42.461Z,15.92
2018-10-06T04:21:42.407Z,15.85
2018-10-06T04:22:42.355Z,15.93
2018-10-06T04:23:42.303Z,15.86
2018-10-06T04:24:42.254Z,15.82
2018-10-06T04:25:42.201Z,15.86
2018-10-06T04:26:42.149Z,15.88
2018-10-06T04:27:42.098Z,15.94
2018-10-06T04:28:42.048Z,15.84
2018-10-06T04:29:41.998Z,15.89
2018-10-06T04:30:41.944Z,15.96
2018-10-06T04:31:41.892Z,15.85
2018-10-06T04:32:41.841Z,15.88
2018-10-06T04:33:41.793Z,15.84
2018-10-06T04:34:41.738Z,15.88
2018-10-06T04:35:41.687Z,15.88
2018-10-06T04:36:41.639Z,15.89
2018-10-06T04:37:41.589Z,15.85
2018-10-06T04:38:41.532Z,15.84
2018-10-06T04:39:41.482Z,15.89
2018-10-06T04:40:41.431Z,15.84
2018-10-06T04:41:41.379Z,15.92
2018-10-06T04:42:41.330Z,15.88
2018-10-06T04:43:41.275Z,15.85
2018-10-06T04:44:41.225Z,15.84
2018-10-06T04:45:41.173Z,15.93
2018-10-06T04:46:41.122Z,15.84
2018-10-06T04:47:41.070Z,15.78
2018-10-06T04:48:41.019Z,15.88
2018-10-06T04:49:40.973Z,15.81
2018-10-06T04:50:40.916Z,15.79
2018-10-06T04:51:40.870Z,15.79
2018-10-06T04:52:40.812Z,15.81
2018-10-06T04:53:40.760Z,15.76
2018-10-06T04:54:40.709Z,15.81
2018-10-06T04:55:40.657Z,15.76
2018-10-06T04:56:40.608Z,15.78
2018-10-06T04:57:40.555Z,15.84
2018-10-06T04:58:40.511Z,15.76
2018-10-06T04:59:40.452Z,15.78
2018-10-06T05:00:40.401Z,15.82
2018-10-06T05:01:40.350Z,15.78
2018-10-06T05:02:40.297Z,15.85
2018-10-06T05:03:40.247Z,15.82
2018-10-06T05:04:40.199Z,15.75
2018-10-06T05:05:40.143Z,15.81
2018-10-06T05:06:40.093Z,15.86
2018-10-06T05:07:40.045Z,15.84
2018-10-06T05:08:39.989Z,15.82
2018-10-06T05:09:39.936Z,15.72
2018-10-06T05:10:39.890Z,15.81
2018-10-06T05:11:39.834Z,15.84
2018-10-06T05:12:39.782Z,15.74
2018-10-06T05:13:39.731Z,15.70
2018-10-06T05:14:39.686Z,15.66
2018-10-06T05:15:39.627Z,15.76
2018-10-06T05:16:39.576Z,15.78
2018-10-06T05:17:39.525Z,15.72
2018-10-06T05:18:39.474Z,15.81
2018-10-06T05:19:39.426Z,15.79
2018-10-06T05:20:39.370Z,15.75
2018-10-06T05:21:39.318Z,15.66
2018-10-06T05:22:39.267Z,15.68
2018-10-06T05:23:39.271Z,15.79
2018-10-06T05:24:39.163Z,15.79
2018-10-06T05:25:39.114Z,15.76
2018-10-06T05:26:39.060Z,15.75
2018-10-06T05:27:39.012Z,15.76
2018-10-06T05:28:38.959Z,15.72
2018-10-06T05:29:38.906Z,15.76
2018-10-06T05:30:38.854Z,15.75
2018-10-06T05:31:38.804Z,15.78
2018-10-06T05:32:38.752Z,15.75
2018-10-06T05:33:38.701Z,15.76
2018-10-06T05:34:38.650Z,15.78
2018-10-06T05:35:38.597Z,15.68
2018-10-06T05:36:38.548Z,15.70
2018-10-06T05:37:38.494Z,15.76
2018-10-06T05:38:38.445Z,15.74
2018-10-06T05:39:38.391Z,15.67
2018-10-06T05:40:38.342Z,15.79
2018-10-06T05:41:38.289Z,15.67
2018-10-06T05:42:38.236Z,15.74
2018-10-06T05:43:38.187Z,15.67
2018-10-06T05:44:38.133Z,15.70
2018-10-06T05:45:38.084Z,15.60
2018-10-06T05:46:38.123Z,15.76
2018-10-06T05:47:37.979Z,15.61
2018-10-06T05:48:37.935Z,15.66
2018-10-06T05:49:37.876Z,15.64
2018-10-06T05:50:37.829Z,15.60
2018-10-06T05:51:37.772Z,15.64
2018-10-06T05:52:37.720Z,15.63
2018-10-06T05:53:37.670Z,15.67
2018-10-06T05:54:37.620Z,15.61
2018-10-06T05:55:37.565Z,15.60
2018-10-06T05:56:37.514Z,15.64
2018-10-06T05:57:37.463Z,15.64
2018-10-06T05:58:37.410Z,15.61
2018-10-06T05:59:37.359Z,15.57
2018-10-06T06:00:37.306Z,15.67
2018-10-06T06:01:37.257Z,15.67
2018-10-06T06:02:37.204Z,15.61
2018-10-06T06:03:37.152Z,15.59
2018-10-06T06:04:37.101Z,15.56
2018-10-06T06:05:37.049Z,15.63
2018-10-06T06:06:36.996Z,15.66
2018-10-06T06:07:36.947Z,15.63
2018-10-06T06:08:36.894Z,15.61
2018-10-06T06:09:36.843Z,15.63
2018-10-06T06:10:36.790Z,15.61
2018-10-06T06:11:36.738Z,15.64
2018-10-06T06:12:36.687Z,15.64
2018-10-06T06:13:36.635Z,15.59
2018-10-06T06:14:36.584Z,15.66
2018-10-06T06:15:36.563Z,15.63
2018-10-06T06:16:36.482Z,15.64
2018-10-06T06:17:36.431Z,15.72
2018-10-06T06:18:36.377Z,15.64
2018-10-06T06:19:36.325Z,15.66
2018-10-06T06:20:36.273Z,15.63
2018-10-06T06:21:36.221Z,15.54
2018-10-06T06:22:36.169Z,15.66
2018-10-06T06:23:36.121Z,15.63
2018-10-06T06:24:36.099Z,15.64
2018-10-06T06:25:36.015Z,15.64
2018-10-06T06:26:35.965Z,15.63
2018-10-06T06:27:35.915Z,15.63
2018-10-06T06:28:35.863Z,15.63
2018-10-06T06:29:35.808Z,15.64
2018-10-06T06:30:35.759Z,15.63
2018-10-06T06:31:35.758Z,15.60
2018-10-06T06:32:35.655Z,15.64
2018-10-06T06:33:35.605Z,15.68
2018-10-06T06:34:35.552Z,15.63
2018-10-06T06:35:35.501Z,15.60
2018-10-06T06:36:35.447Z,15.64
2018-10-06T06:37:35.395Z,15.64
2018-10-06T06:38:35.345Z,15.66
2018-10-06T06:39:35.292Z,15.63
2018-10-06T06:40:35.244Z,15.63
2018-10-06T06:41:35.192Z,15.63
2018-10-06T06:42:35.136Z,15.63
2018-10-06T06:43:35.142Z,15.68
2018-10-06T06:44:35.148Z,15.61
2018-10-06T06:45:34.982Z,15.57
2018-10-06T06:46:34.933Z,15.67
2018-10-06T06:47:34.881Z,15.61
2018-10-06T06:48:34.830Z,15.59
2018-10-06T06:49:34.774Z,15.63
2018-10-06T06:50:34.729Z,15.63
2018-10-06T06:51:34.672Z,15.64
2018-10-06T06:52:34.623Z,15.60
2018-10-06T06:53:34.568Z,15.63
2018-10-06T06:54:34.518Z,15.61
2018-10-06T06:55:34.468Z,15.64
2018-10-06T06:56:34.414Z,15.63
2018-10-06T06:57:34.363Z,15.63
2018-10-06T06:58:34.308Z,15.61
2018-10-06T06:59:34.257Z,15.60
2018-10-06T07:00:34.206Z,15.61
2018-10-06T07:01:34.154Z,15.67
2018-10-06T07:02:34.103Z,15.64
2018-10-06T07:03:34.053Z,15.63
2018-10-06T07:04:34.000Z,15.63
2018-10-06T07:05:34.005Z,15.61
2018-10-06T07:06:33.896Z,15.70
2018-10-06T07:07:33.843Z,15.70
2018-10-06T07:08:33.791Z,15.70
2018-10-06T07:09:33.740Z,15.67
2018-10-06T07:10:33.688Z,15.63
2018-10-06T07:11:33.638Z,15.66
2018-10-06T07:12:33.638Z,15.72
2018-10-06T07:13:33.533Z,15.66
2018-10-06T07:14:33.484Z,15.68
2018-10-06T07:15:33.432Z,15.70
2018-10-06T07:16:33.380Z,15.78
2018-10-06T07:17:33.327Z,15.74
2018-10-06T07:18:33.323Z,15.76
2018-10-06T07:19:33.224Z,15.68
2018-10-06T07:20:33.176Z,15.76
2018-10-06T07:21:33.125Z,15.78
2018-10-06T07:22:33.070Z,15.74
2018-10-06T07:23:33.021Z,15.76
2018-10-06T07:24:33.010Z,15.72
2018-10-06T07:25:32.975Z,15.72
2018-10-06T07:26:32.864Z,15.74
2018-10-06T07:27:32.811Z,15.76
2018-10-06T07:28:32.832Z,15.76
2018-10-06T07:29:32.708Z,15.74
2018-10-06T07:30:32.655Z,15.74
2018-10-06T07:31:32.603Z,15.78
2018-10-06T07:32:32.553Z,15.76
2018-10-06T07:33:32.501Z,15.68
2018-10-06T07:34:32.448Z,15.74
2018-10-06T07:35:32.405Z,15.78
2018-10-06T07:36:32.346Z,15.68
2018-10-06T07:37:32.293Z,15.74
2018-10-06T07:38:32.242Z,15.79
2018-10-06T07:39:32.190Z,15.81
2018-10-06T07:40:32.191Z,15.84
2018-10-06T07:41:32.090Z,15.81
2018-10-06T07:42:32.036Z,15.84
2018-10-06T07:43:31.987Z,15.82
2018-10-06T07:44:31.933Z,15.86
2018-10-06T07:45:31.880Z,15.82
2018-10-06T07:46:31.829Z,15.81
2018-10-06T07:47:31.778Z,15.85
2018-10-06T07:48:31.726Z,15.86
2018-10-06T07:49:31.675Z,15.86
2018-10-06T07:50:31.626Z,15.78
2018-10-06T07:51:31.571Z,15.89
2018-10-06T07:52:31.522Z,15.82
2018-10-06T07:53:31.467Z,15.89
2018-10-06T07:54:31.416Z,15.86
2018-10-06T07:55:31.365Z,15.84
2018-10-06T07:56:31.315Z,15.76
2018-10-06T07:57:31.269Z,15.88
2018-10-06T07:58:31.210Z,15.88
2018-10-06T07:59:31.159Z,15.81
2018-10-06T08:00:31.111Z,15.82
2018-10-06T08:01:31.059Z,15.89
2018-10-06T08:02:31.003Z,15.85
2018-10-06T08:03:30.952Z,15.85
2018-10-06T08:04:30.901Z,15.85
2018-10-06T08:05:30.846Z,15.84
2018-10-06T08:06:30.871Z,15.84
2018-10-06T08:07:30.746Z,15.93
2018-10-06T08:08:30.697Z,15.88
2018-10-06T08:09:30.647Z,15.93
2018-10-06T08:10:30.644Z,15.86
2018-10-06T08:11:30.543Z,15.86
2018-10-06T08:12:30.530Z,15.85
2018-10-06T08:13:30.436Z,15.84
2018-10-06T08:14:30.391Z,15.86
2018-10-06T08:15:30.331Z,15.89
2018-10-06T08:16:30.281Z,15.88
2018-10-06T08:17:30.228Z,15.86
2018-10-06T08:18:30.177Z,15.85
2018-10-06T08:19:30.127Z,15.92
2018-10-06T08:20:30.075Z,15.92
2018-10-06T08:21:30.022Z,15.89
2018-10-06T08:22:29.971Z,15.88
2018-10-06T08:23:29.919Z,15.88
2018-10-06T08:24:29.867Z,15.85
2018-10-06T08:25:29.816Z,15.89
2018-10-06T08:26:29.768Z,15.92
2018-10-06T08:27:29.713Z,15.85
2018-10-06T08:28:29.664Z,15.88
2018-10-06T08:29:29.610Z,15.92
2018-10-06T08:30:29.557Z,15.94
2018-10-06T08:31:29.512Z,15.94
2018-10-06T08:32:29.459Z,15.96
2018-10-06T08:33:29.402Z,15.92
2018-10-06T08:34:29.351Z,15.96
2018-10-06T08:35:29.301Z,15.93
2018-10-06T08:36:29.249Z,15.97
2018-10-06T08:37:29.199Z,15.99
2018-10-06T08:38:29.148Z,15.96
2018-10-06T08:39:29.098Z,15.96
2018-10-06T08:40:29.041Z,16.00
2018-10-06T08:41:28.990Z,16.00
2018-10-06T08:42:28.939Z,16.00
2018-10-06T08:43:28.890Z,15.94
2018-10-06T08:44:28.837Z,15.96
2018-10-06T08:45:28.784Z,16.06
2018-10-06T08:46:28.733Z,16.03
2018-10-06T08:47:28.681Z,16.07
2018-10-06T08:48:28.631Z,16.09
2018-10-06T08:49:28.578Z,16.12
2018-10-06T08:50:28.527Z,16.06
2018-10-06T08:51:28.477Z,16.09
2018-10-06T08:52:28.426Z,16.07
2018-10-06T08:53:28.371Z,16.09
2018-10-06T08:54:28.324Z,16.11
2018-10-06T08:55:28.270Z,16.03
2018-10-06T08:56:28.280Z,16.09
2018-10-06T08:57:28.169Z,16.07
2018-10-06T08:58:28.115Z,16.11
2018-10-06T08:59:28.062Z,16.06
2018-10-06T09:00:28.012Z,16.12
2018-10-06T09:01:27.960Z,16.07
2018-10-06T09:02:27.910Z,16.12
2018-10-06T09:03:27.859Z,16.12
2018-10-06T09:04:27.910Z,16.03
2018-10-06T09:05:27.753Z,16.06
2018-10-06T09:06:27.702Z,16.12
2018-10-06T09:07:27.673Z,16.09
2018-10-06T09:08:27.600Z,16.15
2018-10-06T09:09:27.547Z,16.03
2018-10-06T09:10:27.512Z,16.09
2018-10-06T09:11:27.446Z,16.11
2018-10-06T09:12:27.395Z,16.09
2018-10-06T09:13:27.342Z,16.11
2018-10-06T09:14:27.290Z,16.09
2018-10-06T09:15:27.240Z,16.20
2018-10-06T09:16:27.189Z,16.16
2018-10-06T09:17:27.135Z,16.12
2018-10-06T09:18:27.083Z,16.18
2018-10-06T09:19:27.036Z,16.23
2018-10-06T09:20:26.985Z,16.18
2018-10-06T09:21:26.930Z,16.18
2018-10-06T09:22:26.879Z,16.16
2018-10-06T09:23:26.830Z,16.23
2018-10-06T09:24:26.778Z,16.16
2018-10-06T09:25:26.723Z,16.22
2018-10-06T09:26:26.672Z,16.16
2018-10-06T09:27:26.624Z,16.18
2018-10-06T09:28:26.669Z,16.16
2018-10-06T09:29:26.518Z,16.22
2018-10-06T09:30:26.472Z,16.16
2018-10-06T09:31:26.416Z,16.16
2018-10-06T09:32:26.366Z,16.22
2018-10-06T09:33:26.312Z,16.12
2018-10-06T09:34:26.267Z,16.16
2018-10-06T09:35:26.209Z,16.22
2018-10-06T09:36:26.158Z,16.18
2018-10-06T09:37:26.106Z,16.34
2018-10-06T09:38:26.057Z,16.18
2018-10-06T09:39:26.007Z,16.23
2018-10-06T09:40:25.954Z,16.22
2018-10-06T09:41:25.901Z,16.27
2018-10-06T09:42:25.895Z,16.26
2018-10-06T09:43:25.822Z,16.34
2018-10-06T09:44:25.750Z,16.30
2018-10-06T09:45:25.700Z,16.34
2018-10-06T09:46:25.645Z,16.26
2018-10-06T09:47:25.594Z,16.30
2018-10-06T09:48:25.543Z,16.27
2018-10-06T09:49:25.489Z,16.30
2018-10-06T09:50:25.439Z,16.35
2018-10-06T09:51:25.388Z,16.33
2018-10-06T09:52:25.337Z,16.30
2018-10-06T09:53:25.284Z,16.34
2018-10-06T09:54:25.260Z,16.37
2018-10-06T09:55:25.187Z,16.33
2018-10-06T09:56:25.131Z,16.30
2018-10-06T09:57:25.079Z,16.31
2018-10-06T09:58:25.027Z,16.38
2018-10-06T09:59:25.036Z,16.33
2018-10-06T10:00:24.926Z,16.40
2018-10-06T10:01:24.874Z,16.41
2018-10-06T10:02:24.822Z,16.37
2018-10-06T10:03:24.772Z,16.35
2018-10-06T10:04:24.745Z,16.41
2018-10-06T10:05:24.741Z,16.41
2018-10-06T10:06:24.619Z,16.48
2018-10-06T10:07:24.567Z,16.56
2018-10-06T10:08:24.517Z,16.59
2018-10-06T10:09:24.492Z,16.62
2018-10-06T10:10:24.413Z,16.71
2018-10-06T10:11:24.371Z,16.75
2018-10-06T10:12:24.312Z,16.90
2018-10-06T10:13:24.259Z,16.96
2018-10-06T10:14:24.205Z,17.00
2018-10-06T10:15:24.215Z,16.96
2018-10-06T10:16:24.100Z,17.08
2018-10-06T10:17:24.100Z,17.14
2018-10-06T10:18:24.132Z,17.20
2018-10-06T10:19:23.949Z,17.17
2018-10-06T10:20:23.896Z,17.18
2018-10-06T10:21:23.842Z,17.30
2018-10-06T10:22:24.031Z,17.35
2018-10-06T10:23:23.751Z,17.40
2018-10-06T10:24:23.688Z,17.51
2018-10-06T10:25:23.634Z,17.46
2018-10-06T10:26:23.584Z,17.54
2018-10-06T10:27:23.532Z,17.62
2018-10-06T10:28:23.584Z,17.54
2018-10-06T10:29:23.428Z,17.71
2018-10-06T10:30:23.374Z,17.69
2018-10-06T10:31:23.323Z,17.73
2018-10-06T10:32:23.272Z,17.84
2018-10-06T10:33:23.218Z,17.88
2018-10-06T10:34:23.220Z,17.76
2018-10-06T10:35:23.116Z,17.92
2018-10-06T10:36:23.064Z,17.85
2018-10-06T10:37:23.078Z,18.00
2018-10-06T10:38:22.962Z,18.00
2018-10-06T10:39:22.936Z,18.00
2018-10-06T10:40:22.857Z,18.06
2018-10-06T10:41:22.805Z,18.10
2018-10-06T10:42:22.754Z,18.15
2018-10-06T10:43:22.701Z,18.12
2018-10-06T10:44:22.734Z,18.12
2018-10-06T10:45:22.600Z,18.15
2018-10-06T10:46:22.553Z,18.13
2018-10-06T10:47:22.503Z,18.21
2018-10-06T10:48:22.500Z,18.19
2018-10-06T10:49:22.429Z,18.22
2018-10-06T10:50:22.341Z,18.24
2018-10-06T10:51:22.288Z,18.21
2018-10-06T10:52:22.237Z,18.22
2018-10-06T10:53:22.187Z,18.27
2018-10-06T10:54:22.175Z,18.25
2018-10-06T10:55:22.087Z,18.29
2018-10-06T10:56:22.033Z,18.27
2018-10-06T10:57:21.982Z,18.31
2018-10-06T10:58:21.974Z,18.40
2018-10-06T10:59:21.944Z,18.36
2018-10-06T11:00:21.883Z,18.44
2018-10-06T11:01:21.780Z,18.44
2018-10-06T11:02:21.723Z,18.49
2018-10-06T11:03:21.672Z,18.49
2018-10-06T11:04:21.622Z,18.50
2018-10-06T11:05:21.568Z,18.61
2018-10-06T11:06:21.518Z,18.61
2018-10-06T11:07:21.470Z,18.65
2018-10-06T11:08:21.416Z,18.57
2018-10-06T11:09:21.365Z,18.67
2018-10-06T11:10:21.314Z,18.73
2018-10-06T11:11:21.298Z,18.64
2018-10-06T11:12:21.209Z,18.73
2018-10-06T11:13:21.159Z,18.76
2018-10-06T11:14:21.105Z,18.84
2018-10-06T11:15:21.058Z,18.73
2018-10-06T11:16:21.010Z,18.79
2018-10-06T11:17:21.010Z,18.79
2018-10-06T11:18:20.915Z,18.90
2018-10-06T11:19:20.848Z,18.83
2018-10-06T11:20:20.798Z,18.90
2018-10-06T11:21:20.745Z,18.92
2018-10-06T11:22:20.697Z,18.90
2018-10-06T11:23:20.645Z,18.86
2018-10-06T11:24:20.593Z,18.86
2018-10-06T11:25:20.546Z,18.86
2018-10-06T11:26:20.496Z,18.77
2018-10-06T11:27:20.440Z,18.79
2018-10-06T11:28:20.392Z,18.74
2018-10-06T11:29:20.336Z,18.73
2018-10-06T11:30:20.285Z,18.73
2018-10-06T11:31:20.239Z,18.76
2018-10-06T11:32:20.181Z,18.68
2018-10-06T11:33:20.131Z,18.67
2018-10-06T11:34:20.081Z,18.64
2018-10-06T11:35:20.029Z,18.55
2018-10-06T11:36:19.977Z,18.61
2018-10-06T11:37:20.016Z,18.50
2018-10-06T11:38:19.945Z,18.54
2018-10-06T11:39:19.826Z,18.55
2018-10-06T11:40:19.772Z,18.58
2018-10-06T11:41:19.720Z,18.44
2018-10-06T11:42:19.675Z,18.47
2018-10-06T11:43:19.619Z,18.46
2018-10-06T11:44:19.569Z,18.46
2018-10-06T11:45:19.514Z,18.36
2018-10-06T11:46:19.463Z,18.44
2018-10-06T11:47:19.414Z,18.47
2018-10-06T11:48:19.368Z,18.43
2018-10-06T11:49:19.309Z,18.47
2018-10-06T11:50:19.341Z,18.49
2018-10-06T11:51:19.212Z,18.47
2018-10-06T11:52:19.161Z,18.40
2018-10-06T11:53:19.110Z,18.42
2018-10-06T11:54:19.055Z,18.39
2018-10-06T11:55:19.011Z,18.39
2018-10-06T11:56:18.955Z,18.37
2018-10-06T11:57:18.902Z,18.31
2018-10-06T11:58:18.850Z,18.42
2018-10-06T11:59:18.809Z,18.33
2018-10-06T12:00:18.936Z,18.34
2018-10-06T12:01:18.697Z,18.25
2018-10-06T12:02:18.643Z,18.31
2018-10-06T12:03:18.593Z,18.27
2018-10-06T12:04:18.545Z,18.31
2018-10-06T12:05:18.489Z,18.31
2018-10-06T12:06:18.441Z,18.29
2018-10-06T12:07:18.431Z,18.27
2018-10-06T12:08:18.356Z,18.25
2018-10-06T12:09:18.299Z,18.28
2018-10-06T12:10:18.236Z,18.24
2018-10-06T12:11:18.192Z,18.25
2018-10-06T12:12:18.131Z,18.24
2018-10-06T12:13:18.078Z,18.28
2018-10-06T12:14:18.028Z,18.25
2018-10-06T12:15:17.977Z,18.33
2018-10-06T12:16:17.927Z,18.21
2018-10-06T12:17:17.874Z,18.34
2018-10-06T12:18:17.824Z,18.22
2018-10-06T12:19:17.771Z,18.34
2018-10-06T12:20:17.721Z,18.25
2018-10-06T12:21:17.682Z,18.25
2018-10-06T12:22:17.628Z,18.25
2018-10-06T12:23:17.566Z,18.17
2018-10-06T12:24:17.517Z,18.31
2018-10-06T12:25:17.473Z,18.25
2018-10-06T12:26:17.416Z,18.31
2018-10-06T12:27:17.362Z,18.19
2018-10-06T12:28:17.311Z,18.24
2018-10-06T12:29:17.257Z,18.19
2018-10-06T12:30:17.213Z,18.15
2018-10-06T12:31:17.166Z,18.27
2018-10-06T12:32:17.104Z,18.24
2018-10-06T12:33:17.062Z,18.17
2018-10-06T12:34:17.004Z,18.24
2018-10-06T12:35:17.063Z,18.22
2018-10-06T12:36:16.901Z,18.22
2018-10-06T12:37:16.849Z,18.18
2018-10-06T12:38:16.795Z,18.21
2018-10-06T12:39:16.745Z,18.24
2018-10-06T12:40:16.696Z,18.17
2018-10-06T12:41:16.643Z,18.15
2018-10-06T12:42:16.656Z,18.21
2018-10-06T12:43:16.542Z,18.17
2018-10-06T12:44:16.487Z,18.09
2018-10-06T12:45:16.439Z,18.15
2018-10-06T12:46:16.388Z,18.24
2018-10-06T12:47:16.335Z,18.13
2018-10-06T12:48:16.283Z,18.19
2018-10-06T12:49:16.236Z,18.13
2018-10-06T12:50:16.179Z,18.21
2018-10-06T12:51:16.161Z,18.13
2018-10-06T12:52:16.080Z,18.13
2018-10-06T12:53:16.026Z,18.10
2018-10-06T12:54:15.974Z,18.17
2018-10-06T12:55:15.923Z,18.13
2018-10-06T12:56:15.878Z,18.15
2018-10-06T12:57:15.819Z,18.15
2018-10-06T12:58:15.773Z,18.12
2018-10-06T12:59:15.718Z,18.12
2018-10-06T13:00:15.707Z,18.18
2018-10-06T13:01:15.614Z,18.12
2018-10-06T13:02:15.563Z,18.22
2018-10-06T13:03:15.512Z,18.15
2018-10-06T13:04:15.464Z,18.12
2018-10-06T13:05:15.408Z,18.17
2018-10-06T13:06:15.439Z,18.15
2018-10-06T13:07:15.311Z,18.18